createdAt,value
2022-11-04T00:01:29.128Z,9.07
2022-11-04T00:03:55.859Z,7.13
2022-11-04T00:06:22.545Z,7.53
2022-11-04T00:08:49.234Z,9.23
2022-11-04T00:11:34.369Z,12.00
2022-11-04T00:14:01.105Z,6.50
2022-11-04T00:16:46.502Z,9.68
2022-11-04T00:19:13.231Z,9.52
2022-11-04T00:21:58.410Z,11.95
2022-11-04T00:24:43.504Z,11.25
2022-11-04T00:27:28.728Z,11.43
2022-11-04T00:29:55.452Z,12.38
2022-11-04T00:32:40.609Z,12.48
2022-11-04T00:35:07.384Z,11.57
2022-11-04T00:37:34.051Z,10.75
2022-11-04T00:40:00.817Z,11.15
2022-11-04T00:42:27.482Z,13.63
2022-11-04T00:44:54.209Z,12.02
2022-11-04T00:47:20.890Z,10.65
2022-11-04T00:49:47.541Z,12.13
2022-11-04T00:52:14.221Z,11.50
2022-11-04T00:54:40.927Z,11.93
2022-11-04T00:57:07.584Z,13.13
2022-11-04T00:59:34.236Z,15.05
2022-11-04T01:02:01.023Z,14.43
2022-11-04T01:04:27.825Z,11.30
2022-11-04T01:06:54.474Z,9.20
2022-11-04T01:09:21.187Z,8.38
2022-11-04T01:11:47.846Z,8.65
2022-11-04T01:14:14.558Z,9.25
2022-11-04T01:16:41.260Z,10.85
2022-11-04T01:19:07.897Z,12.85
2022-11-04T01:21:34.606Z,11.40
2022-11-04T01:24:01.289Z,11.05
2022-11-04T01:26:27.968Z,8.93
2022-11-04T01:28:54.899Z,6.63
2022-11-04T01:31:21.645Z,9.02
2022-11-04T01:33:48.483Z,9.15
2022-11-04T01:36:15.323Z,7.75
2022-11-04T01:38:42.473Z,7.47
2022-11-04T01:41:09.235Z,9.98
2022-11-04T01:43:35.953Z,5.45
2022-11-04T01:46:02.698Z,8.80
2022-11-04T01:48:29.467Z,6.28
2022-11-04T01:50:56.403Z,7.95
2022-11-04T01:53:23.077Z,11.13
2022-11-04T01:55:49.757Z,6.38
2022-11-04T01:58:16.407Z,7.45
2022-11-04T02:00:43.203Z,5.43
2022-11-04T02:03:10.272Z,5.43
2022-11-04T02:05:37.203Z,4.20
2022-11-04T02:08:03.964Z,5.63
2022-11-04T02:10:30.655Z,4.97
2022-11-04T02:12:57.381Z,3.88
2022-11-04T02:15:24.089Z,3.33
2022-11-04T02:17:50.783Z,5.35
2022-11-04T02:20:17.469Z,5.80
2022-11-04T02:22:44.220Z,6.53
2022-11-04T02:25:10.857Z,5.88
2022-11-04T02:27:37.590Z,7.72
2022-11-04T02:30:04.425Z,6.55
2022-11-04T02:32:31.102Z,8.60
2022-11-04T02:34:57.918Z,6.32
2022-11-04T02:37:24.774Z,6.65
2022-11-04T02:39:51.438Z,5.75
2022-11-04T02:42:18.120Z,7.10
2022-11-04T02:44:45.087Z,7.22
2022-11-04T02:47:11.769Z,6.68
2022-11-04T02:49:38.501Z,7.70
2022-11-04T02:52:05.199Z,7.45
2022-11-04T02:54:31.895Z,7.88
2022-11-04T02:56:58.572Z,10.68
2022-11-04T02:59:25.312Z,12.77
2022-11-04T03:01:52.688Z,11.30
2022-11-04T03:04:19.539Z,13.10
2022-11-04T03:06:46.293Z,13.63
2022-11-04T03:09:12.994Z,16.55
2022-11-04T03:11:39.658Z,16.15
2022-11-04T03:14:06.348Z,16.38
2022-11-04T03:16:33.108Z,14.05
2022-11-04T03:18:59.811Z,19.42
2022-11-04T03:21:26.548Z,17.08
2022-11-04T03:23:54.248Z,18.25
2022-11-04T03:26:20.984Z,18.63
2022-11-04T03:28:47.704Z,16.48
2022-11-04T03:31:14.667Z,18.27
2022-11-04T03:33:41.348Z,18.35
2022-11-04T03:36:08.871Z,21.27
2022-11-04T03:38:35.529Z,18.58
2022-11-04T03:41:02.241Z,15.57
2022-11-04T03:43:28.931Z,15.85
2022-11-04T03:45:55.630Z,20.38
2022-11-04T03:48:22.378Z,16.23
2022-11-04T03:50:49.107Z,13.55
2022-11-04T03:53:15.846Z,12.25
2022-11-04T03:55:42.585Z,18.17
2022-11-04T03:58:09.506Z,16.80
2022-11-04T04:00:36.419Z,13.52
2022-11-04T04:03:03.163Z,12.60
2022-11-04T04:05:30.072Z,18.95
2022-11-04T04:07:56.852Z,15.00
2022-11-04T04:10:42.028Z,12.63
2022-11-04T04:13:08.819Z,10.13
2022-11-04T04:15:35.464Z,12.90
2022-11-04T04:18:02.166Z,16.75
2022-11-04T04:20:28.869Z,10.43
2022-11-04T04:22:55.523Z,15.48
2022-11-04T04:25:40.958Z,10.82
2022-11-04T04:28:07.873Z,12.10
2022-11-04T04:30:34.834Z,15.43
2022-11-04T04:33:01.541Z,12.73
2022-11-04T04:35:43.777Z,14.05
2022-11-04T04:38:29.061Z,12.00
2022-11-04T04:41:14.585Z,10.10
2022-11-04T04:43:59.899Z,12.18
2022-11-04T04:46:26.650Z,13.02
2022-11-04T04:48:53.296Z,17.30
2022-11-04T04:51:19.995Z,15.10
2022-11-04T04:53:46.711Z,15.00
2022-11-04T04:56:13.408Z,9.73
2022-11-04T04:58:40.068Z,12.02
2022-11-04T05:01:09.125Z,13.48
2022-11-04T05:03:38.715Z,13.30
2022-11-04T05:06:07.738Z,15.50
2022-11-04T05:08:35.306Z,13.98
2022-11-04T05:11:02.038Z,13.93
2022-11-04T05:13:30.354Z,13.52
2022-11-04T05:15:57.470Z,13.60
2022-11-04T05:18:24.172Z,15.48
2022-11-04T05:20:51.007Z,17.92
2022-11-04T05:23:17.717Z,15.93
2022-11-04T05:25:44.413Z,12.65
2022-11-04T05:28:11.380Z,17.23
2022-11-04T05:30:38.250Z,16.17
2022-11-04T05:33:05.439Z,13.73
2022-11-04T05:35:32.344Z,16.77
2022-11-04T05:37:58.982Z,16.17
2022-11-04T05:40:25.709Z,16.00
2022-11-04T05:42:52.493Z,16.65
2022-11-04T05:45:19.226Z,23.17
2022-11-04T05:47:45.927Z,20.42
2022-11-04T05:50:12.662Z,20.92
2022-11-04T05:52:39.366Z,21.60
2022-11-04T05:55:06.053Z,21.55
2022-11-04T05:57:32.773Z,21.70
2022-11-04T05:59:59.469Z,23.45
2022-11-04T06:02:26.301Z,22.48
2022-11-04T06:04:53.142Z,23.02
2022-11-04T06:07:19.865Z,24.80
2022-11-04T06:09:46.557Z,19.50
2022-11-04T06:12:15.083Z,22.20
2022-11-04T06:14:41.813Z,20.15
2022-11-04T06:17:08.475Z,25.67
2022-11-04T06:19:36.429Z,18.95
2022-11-04T06:22:04.021Z,16.17
2022-11-04T06:24:30.815Z,18.83
2022-11-04T06:26:57.576Z,23.83
2022-11-04T06:29:24.246Z,18.45
2022-11-04T06:31:51.195Z,15.48
2022-11-04T06:34:17.899Z,16.67
2022-11-04T06:36:44.560Z,16.90
2022-11-04T06:39:11.553Z,14.90
2022-11-04T06:41:38.235Z,19.23
2022-11-04T06:44:04.894Z,19.10
2022-11-04T06:46:31.593Z,21.52
2022-11-04T06:48:58.397Z,19.55
2022-11-04T06:51:25.081Z,16.33
2022-11-04T06:53:51.848Z,21.98
2022-11-04T06:56:18.528Z,20.20
2022-11-04T06:58:45.307Z,18.23
2022-11-04T07:01:17.254Z,16.90
2022-11-04T07:03:46.996Z,19.98
2022-11-04T07:06:13.655Z,18.90
2022-11-04T07:08:41.109Z,19.45
2022-11-04T07:11:07.807Z,21.55
2022-11-04T07:13:34.491Z,22.75
2022-11-04T07:16:01.215Z,18.30
2022-11-04T07:18:27.958Z,16.08
2022-11-04T07:20:54.655Z,17.88
2022-11-04T07:23:21.981Z,14.63
2022-11-04T07:25:48.766Z,18.35
2022-11-04T07:28:15.521Z,17.63
2022-11-04T07:30:42.754Z,16.48
2022-11-04T07:33:09.444Z,14.85
2022-11-04T07:35:36.127Z,14.43
2022-11-04T07:38:04.172Z,20.98
2022-11-04T07:40:30.957Z,18.92
2022-11-04T07:42:57.637Z,18.17
2022-11-04T07:45:35.174Z,17.85
2022-11-04T07:48:02.030Z,20.27
2022-11-04T07:50:28.758Z,20.17
2022-11-04T07:52:55.471Z,18.67
2022-11-04T07:55:22.174Z,16.30
2022-11-04T07:57:48.905Z,17.45
2022-11-04T08:00:15.842Z,15.73
2022-11-04T08:02:44.313Z,16.42
2022-11-04T08:05:11.051Z,15.15
2022-11-04T08:07:37.715Z,16.13
2022-11-04T08:10:04.409Z,17.25
2022-11-04T08:12:32.487Z,16.33
2022-11-04T08:14:59.216Z,18.65
2022-11-04T08:17:25.915Z,15.88
2022-11-04T08:19:52.633Z,17.83
2022-11-04T08:22:19.312Z,15.27
2022-11-04T08:24:47.419Z,21.63
2022-11-04T08:27:14.115Z,18.33
2022-11-04T08:29:40.853Z,16.23
2022-11-04T08:32:07.555Z,14.35
2022-11-04T08:34:34.247Z,22.15
2022-11-04T08:37:01.065Z,19.40
2022-11-04T08:39:27.823Z,16.48
2022-11-04T08:41:54.631Z,21.30
2022-11-04T08:44:21.385Z,20.40
2022-11-04T08:46:48.161Z,15.48
2022-11-04T08:49:19.608Z,11.25
2022-11-04T08:51:49.640Z,17.45
2022-11-04T08:54:16.364Z,15.50
2022-11-04T08:56:43.037Z,16.38
2022-11-04T08:59:10.578Z,14.90
2022-11-04T09:01:37.442Z,14.38
2022-11-04T09:04:04.330Z,15.48
2022-11-04T09:06:31.444Z,15.10
2022-11-04T09:09:03.814Z,12.80
2022-11-04T09:11:30.512Z,13.70
2022-11-04T09:13:57.634Z,9.70
2022-11-04T09:16:24.403Z,10.20
2022-11-04T09:18:51.112Z,11.18
2022-11-04T09:21:17.886Z,14.20
2022-11-04T09:23:44.566Z,11.55
2022-11-04T09:26:11.249Z,9.88
2022-11-04T09:28:38.024Z,13.48
2022-11-04T09:31:04.715Z,13.82
2022-11-04T09:33:31.402Z,16.23
2022-11-04T09:35:58.174Z,12.85
2022-11-04T09:38:24.913Z,15.25
2022-11-04T09:40:51.616Z,15.30
2022-11-04T09:43:18.328Z,16.65
2022-11-04T09:45:44.999Z,12.68
2022-11-04T09:48:11.704Z,10.60
2022-11-04T09:50:38.438Z,12.07
2022-11-04T09:53:05.146Z,15.80
2022-11-04T09:55:32.275Z,11.68
2022-11-04T09:57:59.185Z,14.70
2022-11-04T10:00:25.889Z,14.18
2022-11-04T10:02:52.903Z,10.00
2022-11-04T10:05:19.896Z,13.88
2022-11-04T10:07:46.586Z,11.77
2022-11-04T10:10:14.003Z,13.15
2022-11-04T10:12:40.675Z,10.88
2022-11-04T10:15:07.383Z,11.07
2022-11-04T10:17:34.057Z,12.70
2022-11-04T10:20:00.813Z,12.15
2022-11-04T10:22:29.135Z,11.18
2022-11-04T10:24:55.854Z,12.25
2022-11-04T10:27:22.654Z,13.43
2022-11-04T10:29:49.411Z,15.18
2022-11-04T10:32:21.938Z,12.27
2022-11-04T10:34:49.461Z,12.52
2022-11-04T10:37:16.983Z,7.97
2022-11-04T10:39:43.806Z,12.23
2022-11-04T10:42:10.534Z,9.60
2022-11-04T10:44:37.391Z,9.90
2022-11-04T10:47:04.173Z,10.02
2022-11-04T10:49:30.862Z,7.78
2022-11-04T10:51:57.583Z,8.10
2022-11-04T10:54:24.333Z,10.88
2022-11-04T10:56:51.204Z,9.45
2022-11-04T10:59:20.660Z,10.77
2022-11-04T11:01:47.642Z,15.05
2022-11-04T11:04:14.802Z,12.32
2022-11-04T11:06:41.734Z,10.48
2022-11-04T11:09:12.794Z,10.98
2022-11-04T11:11:39.563Z,16.58
2022-11-04T11:14:06.222Z,13.68
2022-11-04T11:16:33.205Z,10.73
2022-11-04T11:18:59.880Z,13.70
2022-11-04T11:21:26.539Z,13.27
2022-11-04T11:23:56.188Z,11.15
2022-11-04T11:26:22.903Z,11.15
2022-11-04T11:28:53.152Z,12.48
2022-11-04T11:31:26.875Z,12.27
2022-11-04T11:33:53.626Z,12.05
2022-11-04T11:36:20.374Z,14.57
2022-11-04T11:38:47.111Z,13.88
2022-11-04T11:41:29.239Z,13.85
2022-11-04T11:43:56.011Z,16.63
2022-11-04T11:46:23.277Z,14.27
2022-11-04T11:48:49.990Z,10.68
2022-11-04T11:51:18.177Z,13.27
2022-11-04T11:53:48.008Z,14.65
2022-11-04T11:56:14.704Z,12.80
2022-11-04T12:01:28.330Z,11.43
2022-11-04T12:09:34.466Z,14.38
2022-11-04T12:12:01.760Z,13.13
2022-11-04T12:14:28.485Z,15.13
2022-11-04T12:16:55.162Z,11.68
2022-11-04T12:19:21.906Z,11.00
2022-11-04T12:21:48.631Z,11.68
2022-11-04T12:24:16.107Z,12.20
2022-11-04T12:26:42.788Z,12.23
2022-11-04T12:29:09.601Z,11.68
2022-11-04T12:31:36.276Z,12.93
2022-11-04T12:34:03.038Z,11.70
2022-11-04T12:36:29.766Z,11.20
2022-11-04T12:38:57.347Z,9.57
2022-11-04T12:44:12.317Z,9.05
2022-11-04T12:46:39.114Z,11.27
2022-11-04T12:49:07.339Z,23.27
2022-11-04T12:51:34.277Z,8.52
2022-11-04T12:54:00.938Z,8.35
2022-11-04T12:56:27.614Z,11.10
2022-11-04T12:58:54.263Z,13.02
2022-11-04T13:01:21.051Z,10.75
2022-11-04T13:03:47.879Z,9.52
2022-11-04T13:06:14.545Z,8.95
2022-11-04T13:08:41.674Z,9.25
2022-11-04T13:11:22.577Z,10.77
2022-11-04T13:13:49.368Z,9.13
2022-11-04T13:16:16.038Z,9.18
2022-11-04T13:18:42.758Z,8.27
2022-11-04T13:21:09.466Z,8.32
2022-11-04T13:23:36.212Z,7.28
2022-11-04T13:26:02.920Z,8.27
2022-11-04T13:28:29.692Z,5.20
2022-11-04T13:30:56.408Z,6.90
2022-11-04T13:33:23.131Z,7.03
2022-11-04T13:35:49.848Z,6.25
2022-11-04T13:38:16.513Z,7.10
2022-11-04T13:40:43.238Z,6.35
2022-11-04T13:43:28.399Z,7.25
2022-11-04T13:45:55.196Z,7.85
2022-11-04T13:48:21.888Z,6.13
2022-11-04T13:50:48.608Z,7.05
2022-11-04T13:53:15.316Z,4.03
2022-11-04T13:55:41.981Z,5.25
2022-11-04T13:58:08.697Z,8.02
2022-11-04T14:00:37.535Z,7.32
2022-11-04T14:03:04.273Z,5.35
2022-11-04T14:05:36.194Z,5.95
2022-11-04T14:08:02.968Z,6.50
2022-11-04T14:10:29.701Z,3.53
2022-11-04T14:12:56.444Z,6.90
2022-11-04T14:15:23.110Z,5.85
2022-11-04T14:17:49.811Z,4.57
2022-11-04T14:20:16.482Z,4.30
2022-11-04T14:22:43.193Z,4.78
2022-11-04T14:25:09.962Z,4.20
2022-11-04T14:27:36.687Z,4.05
2022-11-04T14:30:03.812Z,7.63
2022-11-04T14:32:30.497Z,4.63
2022-11-04T14:34:57.195Z,6.50
2022-11-04T14:37:25.355Z,5.88
2022-11-04T14:39:52.035Z,6.22
2022-11-04T14:42:18.716Z,5.50
2022-11-04T14:44:49.647Z,9.05
2022-11-04T14:47:16.927Z,5.95
2022-11-04T14:49:43.665Z,4.88
2022-11-04T14:52:10.368Z,6.85
2022-11-04T14:54:37.052Z,6.47
2022-11-04T14:57:04.155Z,5.10
2022-11-04T14:59:31.465Z,5.50
2022-11-04T15:01:59.171Z,5.68
2022-11-04T15:04:26.863Z,6.25
2022-11-04T15:06:55.108Z,5.90
2022-11-04T15:09:22.140Z,10.45
2022-11-04T15:12:07.497Z,5.82
2022-11-04T15:14:34.196Z,5.72
2022-11-04T15:17:02.761Z,6.05
2022-11-04T15:19:29.487Z,8.95
2022-11-04T15:21:56.168Z,6.63
2022-11-04T15:24:23.262Z,6.65
2022-11-04T15:26:50.051Z,5.78
2022-11-04T15:29:16.751Z,4.32
2022-11-04T15:31:43.510Z,6.22
2022-11-04T15:34:14.443Z,6.05
2022-11-04T15:36:41.465Z,6.43
2022-11-04T15:39:08.198Z,5.30
2022-11-04T15:41:53.864Z,7.85
2022-11-04T15:44:20.631Z,4.88
2022-11-04T15:46:47.270Z,6.07
2022-11-04T15:49:14.059Z,5.43
2022-11-04T15:51:41.698Z,5.63
2022-11-04T15:54:08.458Z,5.57
2022-11-04T15:56:35.341Z,5.90
2022-11-04T15:59:02.852Z,4.88
2022-11-04T16:01:29.733Z,7.45
2022-11-04T16:03:56.534Z,8.20
2022-11-04T16:06:23.247Z,8.45
2022-11-04T16:08:49.942Z,5.28
2022-11-04T16:11:16.873Z,7.63
2022-11-04T16:13:43.671Z,7.43
2022-11-04T16:16:10.416Z,8.25
2022-11-04T16:18:37.216Z,7.18
2022-11-04T16:21:03.933Z,6.38
2022-11-04T16:23:30.632Z,46.58
2022-11-04T16:25:57.325Z,12.68
2022-11-04T16:28:23.998Z,8.80
2022-11-04T16:30:50.950Z,7.40
2022-11-04T16:33:17.649Z,8.13
2022-11-04T16:35:44.336Z,7.35
2022-11-04T16:38:11.078Z,6.90
2022-11-04T16:40:37.784Z,7.45
2022-11-04T16:43:04.503Z,7.85
2022-11-04T16:45:31.332Z,8.18
2022-11-04T16:47:58.847Z,6.70
2022-11-04T16:50:25.683Z,7.65
2022-11-04T16:52:52.455Z,5.28
2022-11-04T16:55:19.185Z,10.65
2022-11-04T16:57:45.931Z,26.63
2022-11-04T17:00:13.409Z,20.85
2022-11-04T17:02:41.262Z,15.40
2022-11-04T17:05:09.028Z,13.85
2022-11-04T17:07:52.232Z,12.63
2022-11-04T17:10:21.187Z,14.95
2022-11-04T17:12:47.863Z,19.73
2022-11-04T17:15:14.511Z,23.25
2022-11-04T17:17:41.201Z,18.48
2022-11-04T17:20:07.902Z,17.60
2022-11-04T17:22:34.791Z,15.93
2022-11-04T17:25:01.467Z,13.30
2022-11-04T17:27:28.230Z,16.92
2022-11-04T17:29:54.961Z,19.85
2022-11-04T17:32:21.626Z,25.08
2022-11-04T17:34:48.327Z,22.23
2022-11-04T17:37:15.041Z,24.15
2022-11-04T17:39:41.719Z,16.45
2022-11-04T17:42:27.074Z,20.67
2022-11-04T17:44:53.784Z,24.23
2022-11-04T17:47:20.500Z,26.67
2022-11-04T17:49:47.305Z,22.65
2022-11-04T17:52:13.990Z,22.48
2022-11-04T17:54:40.648Z,20.45
2022-11-04T17:57:07.437Z,27.15
2022-11-04T17:59:36.873Z,26.50
2022-11-04T18:02:04.012Z,28.77
2022-11-04T18:04:30.796Z,41.67
2022-11-04T18:07:02.604Z,34.72
2022-11-04T18:09:29.927Z,49.80
2022-11-04T18:12:15.132Z,43.97
2022-11-04T18:14:41.818Z,31.95
2022-11-04T18:17:08.503Z,23.75
2022-11-04T18:19:35.274Z,22.88
2022-11-04T18:22:01.946Z,219.80
2022-11-04T18:24:28.755Z,245.07
2022-11-04T18:26:55.523Z,239.40
2022-11-04T18:29:22.991Z,203.80
2022-11-04T18:31:49.864Z,137.90
2022-11-04T18:34:17.827Z,64.97
2022-11-04T18:36:44.616Z,53.72
2022-11-04T18:39:11.264Z,41.25
2022-11-04T18:41:39.841Z,36.83
2022-11-04T18:44:06.540Z,28.67
2022-11-04T18:46:33.234Z,17.60
2022-11-04T18:48:59.913Z,23.42
2022-11-04T18:51:26.632Z,18.35
2022-11-04T18:53:53.329Z,12.82
2022-11-04T18:56:20.006Z,11.43
2022-11-04T18:58:46.856Z,9.85
2022-11-04T19:01:13.557Z,10.00
2022-11-04T19:03:40.279Z,9.35
2022-11-04T19:06:06.963Z,9.88
2022-11-04T19:08:33.734Z,11.18
2022-11-04T19:11:01.821Z,12.52
2022-11-04T19:13:28.780Z,11.98
2022-11-04T19:15:55.495Z,15.52
2022-11-04T19:18:22.251Z,11.75
2022-11-04T19:20:48.988Z,11.25
2022-11-04T19:23:15.677Z,12.77
2022-11-04T19:25:42.380Z,17.73
2022-11-04T19:28:34.601Z,12.98
2022-11-04T19:30:56.419Z,15.98
2022-11-04T19:33:23.053Z,12.35
2022-11-04T19:35:49.691Z,15.10
2022-11-04T19:38:17.516Z,17.02
2022-11-04T19:40:48.052Z,16.90
2022-11-04T19:43:18.481Z,15.45
2022-11-04T19:45:45.636Z,13.85
2022-11-04T19:48:12.586Z,20.08
2022-11-04T19:50:39.684Z,26.23
2022-11-04T19:53:06.403Z,38.13
2022-11-04T19:55:33.118Z,33.15
2022-11-04T19:57:59.969Z,34.70
2022-11-04T20:00:26.620Z,36.50
2022-11-04T20:02:53.283Z,31.05
2022-11-04T20:05:19.964Z,32.33
2022-11-04T20:07:46.740Z,33.72
2022-11-04T20:10:13.474Z,28.20
2022-11-04T20:12:58.843Z,27.17
2022-11-04T20:15:26.318Z,24.73
2022-11-04T20:17:53.052Z,24.60
2022-11-04T20:20:19.724Z,26.85
2022-11-04T20:22:46.953Z,26.70
2022-11-04T20:25:13.703Z,29.63
2022-11-04T20:27:40.427Z,32.83
2022-11-04T20:30:07.231Z,26.77
2022-11-04T20:32:34.218Z,28.73
2022-11-04T20:35:03.794Z,25.77
2022-11-04T20:37:30.637Z,26.75
2022-11-04T20:39:57.622Z,30.10
2022-11-04T20:42:26.510Z,28.27
2022-11-04T20:44:53.900Z,29.08
2022-11-04T20:47:20.705Z,28.05
2022-11-04T20:49:47.583Z,35.63
2022-11-04T20:52:14.415Z,29.88
2022-11-04T20:54:41.148Z,32.88
2022-11-04T20:57:07.972Z,34.65
2022-11-04T20:59:34.729Z,36.53
2022-11-04T21:02:01.601Z,36.33
2022-11-04T21:04:31.960Z,42.67
2022-11-04T21:07:03.014Z,37.90
2022-11-04T21:09:29.917Z,34.28
2022-11-04T21:11:58.178Z,38.58
2022-11-04T21:14:25.049Z,40.55
2022-11-04T21:16:51.888Z,38.13
2022-11-04T21:19:20.271Z,44.42
2022-11-04T21:21:47.608Z,43.65
2022-11-04T21:24:14.298Z,43.80
2022-11-04T21:26:43.093Z,35.95
2022-11-04T21:29:10.651Z,37.72
2022-11-04T21:31:37.572Z,37.78
2022-11-04T21:34:04.311Z,37.85
2022-11-04T21:36:31.009Z,32.95
2022-11-04T21:38:59.130Z,41.35
2022-11-04T21:41:25.991Z,40.83
2022-11-04T21:43:52.862Z,35.60
2022-11-04T21:46:19.572Z,33.63
2022-11-04T21:48:46.316Z,33.83
2022-11-04T21:51:13.044Z,39.00
2022-11-04T21:53:39.998Z,36.10
2022-11-04T21:56:06.815Z,33.88
2022-11-04T21:58:33.561Z,33.35
2022-11-04T22:01:00.479Z,33.65
2022-11-04T22:03:27.425Z,32.85
2022-11-04T22:05:54.131Z,32.65
2022-11-04T22:08:21.508Z,33.78
2022-11-04T22:10:48.257Z,31.48
2022-11-04T22:13:14.953Z,31.55
2022-11-04T22:16:00.923Z,34.05
2022-11-04T22:18:27.680Z,32.88
2022-11-04T22:20:54.492Z,32.92
2022-11-04T22:23:21.202Z,37.60
2022-11-04T22:25:50.367Z,31.70
2022-11-04T22:28:17.331Z,36.60
2022-11-04T22:30:44.228Z,35.42
2022-11-04T22:33:11.221Z,30.20
2022-11-04T22:35:38.210Z,34.58
2022-11-04T22:38:06.899Z,35.60
2022-11-04T22:40:35.568Z,28.30
2022-11-04T22:43:02.265Z,33.13
2022-11-04T22:45:28.985Z,27.85
2022-11-04T22:47:55.711Z,27.65
2022-11-04T22:50:22.392Z,27.88
2022-11-04T22:52:49.171Z,22.95
2022-11-04T22:55:16.125Z,23.55
2022-11-04T22:57:42.822Z,23.33
2022-11-04T23:00:09.535Z,23.50
2022-11-04T23:02:37.250Z,23.77
2022-11-04T23:05:04.233Z,24.30
2022-11-04T23:07:30.975Z,21.65
2022-11-04T23:10:16.436Z,21.17
2022-11-04T23:13:01.812Z,18.70
2022-11-04T23:15:47.269Z,23.40
2022-11-04T23:18:32.800Z,22.42
2022-11-04T23:21:18.326Z,22.25
2022-11-04T23:24:03.849Z,20.30
2022-11-04T23:26:31.770Z,23.45
2022-11-04T23:29:17.678Z,18.48
2022-11-04T23:31:44.443Z,18.63
2022-11-04T23:34:29.881Z,21.70
2022-11-04T23:37:12.078Z,18.20
2022-11-04T23:39:38.908Z,18.98
2022-11-04T23:42:17.845Z,20.73
2022-11-04T23:45:03.032Z,18.23
2022-11-04T23:47:48.291Z,16.97
2022-11-04T23:50:33.872Z,17.33
2022-11-04T23:53:19.155Z,19.00
2022-11-04T23:56:04.739Z,16.98
2022-11-04T23:58:50.045Z,18.70
